createdAt,value
2019-05-05T00:00:28.646Z,0.00
2019-05-05T00:01:28.630Z,0.00
2019-05-05T00:02:29.088Z,0.00
2019-05-05T00:03:28.519Z,0.00
2019-05-05T00:04:28.551Z,0.00
2019-05-05T00:05:28.493Z,0.00
2019-05-05T00:06:28.589Z,0.00
2019-05-05T00:07:28.478Z,0.00
2019-05-05T00:08:28.479Z,0.00
2019-05-05T00:09:28.435Z,0.00
2019-05-05T00:10:28.439Z,0.00
2019-05-05T00:11:28.464Z,0.00
2019-05-05T00:12:29.216Z,0.00
2019-05-05T00:13:28.605Z,0.00
2019-05-05T00:14:28.402Z,0.00
2019-05-05T00:15:28.411Z,0.00
2019-05-05T00:16:28.352Z,0.00
2019-05-05T00:17:28.355Z,0.00
2019-05-05T00:18:28.363Z,0.00
2019-05-05T00:19:32.546Z,0.00
2019-05-05T00:20:28.353Z,0.00
2019-05-05T00:21:28.334Z,0.00
2019-05-05T00:22:28.288Z,0.00
2019-05-05T00:23:28.381Z,0.00
2019-05-05T00:24:28.361Z,0.00
2019-05-05T00:25:28.361Z,0.00
2019-05-05T00:26:29.091Z,0.00
2019-05-05T00:27:28.291Z,0.00
2019-05-05T00:28:28.242Z,0.00
2019-05-05T00:29:28.222Z,0.00
2019-05-05T00:30:28.265Z,0.00
2019-05-05T00:31:28.215Z,0.00
2019-05-05T00:32:28.183Z,0.00
2019-05-05T00:33:28.178Z,0.00
2019-05-05T00:34:28.223Z,0.00
2019-05-05T00:35:28.204Z,0.00
2019-05-05T00:36:28.202Z,0.00
2019-05-05T00:37:28.122Z,0.00
2019-05-05T00:38:28.691Z,0.00
2019-05-05T00:39:28.150Z,0.00
2019-05-05T00:40:28.146Z,0.00
2019-05-05T00:41:28.184Z,0.00
2019-05-05T00:42:28.140Z,0.00
2019-05-05T00:43:28.107Z,0.00
2019-05-05T00:44:28.100Z,0.00
2019-05-05T00:45:28.059Z,0.00
2019-05-05T00:46:28.171Z,0.00
2019-05-05T00:47:28.591Z,0.00
2019-05-05T00:48:28.044Z,0.00
2019-05-05T00:49:28.119Z,0.00
2019-05-05T00:50:28.000Z,0.00
2019-05-05T00:51:28.030Z,0.00
2019-05-05T00:52:28.000Z,0.00
2019-05-05T00:53:27.987Z,0.00
2019-05-05T00:54:27.949Z,0.00
2019-05-05T00:55:28.001Z,0.00
2019-05-05T00:56:28.592Z,0.00
2019-05-05T00:57:27.993Z,0.00
2019-05-05T00:58:27.972Z,0.00
2019-05-05T00:59:28.602Z,0.00
2019-05-05T01:00:27.933Z,0.00
2019-05-05T01:01:27.902Z,0.00
2019-05-05T01:02:27.895Z,0.00
2019-05-05T01:03:27.883Z,0.00
2019-05-05T01:04:28.616Z,0.00
2019-05-05T01:05:28.597Z,0.00
2019-05-05T01:06:28.013Z,0.00
2019-05-05T01:07:27.906Z,0.00
2019-05-05T01:08:28.014Z,0.00
2019-05-05T01:09:27.938Z,0.00
2019-05-05T01:10:28.023Z,0.00
2019-05-05T01:11:27.833Z,0.00
2019-05-05T01:12:27.864Z,0.00
2019-05-05T01:13:27.790Z,0.00
2019-05-05T01:14:27.846Z,0.00
2019-05-05T01:15:28.595Z,0.00
2019-05-05T01:16:27.738Z,0.00
2019-05-05T01:17:27.756Z,0.00
2019-05-05T01:18:27.763Z,0.00
2019-05-05T01:19:28.660Z,0.00
2019-05-05T01:20:27.779Z,0.00
2019-05-05T01:21:27.707Z,0.00
2019-05-05T01:22:27.703Z,0.00
2019-05-05T01:23:28.015Z,0.00
2019-05-05T01:24:28.601Z,0.00
2019-05-05T01:25:27.636Z,0.00
2019-05-05T01:26:27.639Z,0.00
2019-05-05T01:27:27.667Z,0.00
2019-05-05T01:28:27.628Z,0.00
2019-05-05T01:29:27.695Z,0.00
2019-05-05T01:30:27.590Z,0.00
2019-05-05T01:31:27.651Z,0.00
2019-05-05T01:32:27.582Z,0.00
2019-05-05T01:33:27.657Z,0.00
2019-05-05T01:34:27.587Z,0.00
2019-05-05T01:35:27.592Z,0.00
2019-05-05T01:36:27.558Z,0.00
2019-05-05T01:37:27.645Z,0.00
2019-05-05T01:38:27.539Z,0.00
2019-05-05T01:39:27.587Z,0.00
2019-05-05T01:40:27.503Z,0.00
2019-05-05T01:41:27.542Z,0.00
2019-05-05T01:42:27.499Z,0.00
2019-05-05T01:43:27.456Z,0.00
2019-05-05T01:44:27.467Z,0.00
2019-05-05T01:45:27.509Z,0.00
2019-05-05T01:46:27.454Z,0.00
2019-05-05T01:47:27.435Z,0.00
2019-05-05T01:48:27.457Z,0.00
2019-05-05T01:49:27.391Z,0.00
2019-05-05T01:50:27.453Z,0.00
2019-05-05T01:51:27.423Z,0.00
2019-05-05T01:52:27.402Z,0.00
2019-05-05T01:53:27.377Z,0.00
2019-05-05T01:54:27.359Z,0.00
2019-05-05T01:55:27.420Z,0.00
2019-05-05T01:56:27.397Z,0.00
2019-05-05T01:57:27.411Z,0.00
2019-05-05T01:58:27.437Z,0.00
2019-05-05T01:59:27.573Z,0.00
2019-05-05T02:00:27.372Z,0.00
2019-05-05T02:01:27.273Z,0.00
2019-05-05T02:02:27.267Z,0.00
2019-05-05T02:03:27.357Z,0.00
2019-05-05T02:04:27.260Z,0.00
2019-05-05T02:05:27.290Z,0.00
2019-05-05T02:06:27.226Z,0.00
2019-05-05T02:07:27.258Z,0.00
2019-05-05T02:08:28.102Z,0.00
2019-05-05T02:09:27.385Z,0.00
2019-05-05T02:10:27.240Z,0.00
2019-05-05T02:11:27.225Z,0.00
2019-05-05T02:12:27.181Z,0.00
2019-05-05T02:13:27.193Z,0.00
2019-05-05T02:14:27.221Z,0.00
2019-05-05T02:15:28.102Z,0.00
2019-05-05T02:16:27.148Z,0.00
2019-05-05T02:17:27.126Z,0.00
2019-05-05T02:18:27.113Z,0.00
2019-05-05T02:19:27.104Z,0.00
2019-05-05T02:20:29.401Z,0.00
2019-05-05T02:21:27.084Z,0.00
2019-05-05T02:22:27.101Z,0.00
2019-05-05T02:23:27.052Z,0.00
2019-05-05T02:24:27.078Z,0.00
2019-05-05T02:25:27.105Z,0.00
2019-05-05T02:26:27.063Z,0.00
2019-05-05T02:27:27.099Z,0.00
2019-05-05T02:28:27.009Z,0.00
2019-05-05T02:29:27.007Z,0.00
2019-05-05T02:30:26.979Z,0.00
2019-05-05T02:31:26.964Z,0.00
2019-05-05T02:32:26.973Z,0.00
2019-05-05T02:33:26.982Z,0.00
2019-05-05T02:34:26.985Z,0.00
2019-05-05T02:35:26.985Z,0.00
2019-05-05T02:36:26.960Z,0.00
2019-05-05T02:37:26.921Z,0.00
2019-05-05T02:38:26.952Z,0.00
2019-05-05T02:39:27.106Z,0.00
2019-05-05T02:40:26.924Z,0.00
2019-05-05T02:41:26.899Z,0.00
2019-05-05T02:42:26.928Z,0.00
2019-05-05T02:43:27.677Z,0.00
2019-05-05T02:44:26.859Z,0.00
2019-05-05T02:45:26.865Z,0.00
2019-05-05T02:46:26.928Z,0.00
2019-05-05T02:47:26.808Z,0.00
2019-05-05T02:48:26.869Z,0.00
2019-05-05T02:49:26.798Z,0.00
2019-05-05T02:50:26.775Z,0.00
2019-05-05T02:51:26.804Z,0.00
2019-05-05T02:52:26.773Z,0.00
2019-05-05T02:53:26.755Z,0.00
2019-05-05T02:54:26.982Z,0.00
2019-05-05T02:55:26.802Z,0.00
2019-05-05T02:56:26.709Z,0.00
2019-05-05T02:57:27.615Z,0.00
2019-05-05T02:58:26.743Z,0.00
2019-05-05T02:59:26.707Z,0.00
2019-05-05T03:00:26.807Z,0.00
2019-05-05T03:01:27.609Z,0.00
2019-05-05T03:02:26.688Z,0.00
2019-05-05T03:03:26.660Z,0.00
2019-05-05T03:04:26.808Z,0.00
2019-05-05T03:05:26.604Z,0.00
2019-05-05T03:06:27.661Z,0.00
2019-05-05T03:07:26.662Z,0.00
2019-05-05T03:08:26.585Z,0.00
2019-05-05T03:09:27.112Z,0.00
2019-05-05T03:10:27.107Z,0.00
2019-05-05T03:11:26.669Z,0.00
2019-05-05T03:12:26.540Z,0.00
2019-05-05T03:13:26.562Z,0.00
2019-05-05T03:14:26.554Z,0.00
2019-05-05T03:15:27.610Z,0.00
2019-05-05T03:16:27.115Z,0.00
2019-05-05T03:17:26.532Z,0.00
2019-05-05T03:18:26.506Z,0.00
2019-05-05T03:19:26.487Z,0.00
2019-05-05T03:20:26.486Z,0.00
2019-05-05T03:21:26.443Z,0.00
2019-05-05T03:22:26.476Z,0.00
2019-05-05T03:23:26.436Z,5.62
2019-05-05T03:24:26.434Z,5.62
2019-05-05T03:25:26.395Z,5.62
2019-05-05T03:26:26.422Z,5.62
2019-05-05T03:27:26.386Z,5.62
2019-05-05T03:28:26.478Z,5.62
2019-05-05T03:29:26.428Z,5.62
2019-05-05T03:30:26.399Z,5.62
2019-05-05T03:31:26.748Z,5.62
2019-05-05T03:32:26.332Z,11.25
2019-05-05T03:33:26.330Z,11.25
2019-05-05T03:34:26.351Z,11.25
2019-05-05T03:35:37.738Z,11.25
2019-05-05T03:36:26.276Z,11.25
2019-05-05T03:37:35.300Z,11.25
2019-05-05T03:38:26.262Z,11.25
2019-05-05T03:39:26.275Z,16.88
2019-05-05T03:40:35.342Z,16.88
2019-05-05T03:41:26.466Z,16.88
2019-05-05T03:43:48.635Z,22.50
2019-05-05T03:44:57.346Z,22.50
2019-05-05T03:45:48.630Z,22.50
2019-05-05T03:46:48.583Z,22.50
2019-05-05T03:47:48.582Z,28.12
2019-05-05T03:48:48.570Z,28.12
2019-05-05T03:49:48.537Z,28.12
2019-05-05T03:50:58.789Z,33.75
2019-05-05T03:51:48.598Z,33.75
2019-05-05T03:52:48.540Z,33.75
2019-05-05T03:53:48.564Z,39.38
2019-05-05T03:54:48.528Z,39.38
2019-05-05T03:55:48.491Z,39.38
2019-05-05T03:56:48.519Z,39.38
2019-05-05T03:57:48.511Z,45.00
2019-05-05T03:58:48.479Z,45.00
2019-05-05T03:59:48.476Z,45.00
2019-05-05T04:00:48.468Z,50.62
2019-05-05T04:01:48.512Z,50.62
2019-05-05T04:02:48.443Z,50.62
2019-05-05T04:03:48.423Z,56.25
2019-05-05T04:04:48.404Z,56.25
2019-05-05T04:05:48.454Z,56.25
2019-05-05T04:06:48.445Z,56.25
2019-05-05T04:07:48.390Z,61.88
2019-05-05T04:08:48.414Z,61.88
2019-05-05T04:09:48.362Z,61.88
2019-05-05T04:10:48.425Z,67.50
2019-05-05T04:11:48.377Z,67.50
2019-05-05T04:12:48.437Z,67.50
2019-05-05T04:13:48.343Z,67.50
2019-05-05T04:14:48.340Z,73.12
2019-05-05T04:15:48.353Z,73.12
2019-05-05T04:16:48.277Z,73.12
2019-05-05T04:17:48.300Z,73.12
2019-05-05T04:18:48.246Z,73.12
2019-05-05T04:19:48.310Z,73.12
2019-05-05T04:20:48.254Z,73.12
2019-05-05T04:21:48.239Z,78.75
2019-05-05T04:22:48.311Z,78.75
2019-05-05T04:23:48.257Z,78.75
2019-05-05T04:24:48.225Z,84.38
2019-05-05T04:25:48.211Z,84.38
2019-05-05T04:26:48.202Z,84.38
2019-05-05T04:27:48.231Z,84.38
2019-05-05T04:28:48.156Z,90.00
2019-05-05T04:29:48.704Z,90.00
2019-05-05T04:30:48.147Z,90.00
2019-05-05T04:31:48.142Z,95.62
2019-05-05T04:32:48.095Z,95.62
2019-05-05T04:33:48.154Z,95.62
2019-05-05T04:34:48.107Z,95.62
2019-05-05T04:35:48.089Z,101.25
2019-05-05T04:36:48.206Z,101.25
2019-05-05T04:37:48.117Z,101.25
2019-05-05T04:38:48.051Z,101.25
2019-05-05T04:39:48.059Z,106.88
2019-05-05T04:40:48.046Z,106.88
2019-05-05T04:41:48.092Z,106.88
2019-05-05T04:42:48.019Z,106.88
2019-05-05T04:43:48.018Z,112.50
2019-05-05T04:44:48.027Z,112.50
2019-05-05T04:45:47.993Z,112.50
2019-05-05T04:46:47.980Z,112.50
2019-05-05T04:47:47.992Z,118.12
2019-05-05T04:48:47.941Z,118.12
2019-05-05T04:49:48.004Z,118.12
2019-05-05T04:50:47.957Z,118.12
2019-05-05T04:51:50.436Z,123.75
2019-05-05T04:52:47.938Z,123.75
2019-05-05T04:53:47.890Z,123.75
2019-05-05T04:54:47.904Z,129.38
2019-05-05T04:55:47.982Z,129.38
2019-05-05T04:56:47.848Z,129.38
2019-05-05T04:57:47.851Z,129.38
2019-05-05T04:58:47.931Z,135.00
2019-05-05T04:59:47.876Z,135.00
2019-05-05T05:00:47.846Z,135.00
2019-05-05T05:01:47.849Z,135.00
2019-05-05T05:02:47.802Z,140.62
2019-05-05T05:03:47.833Z,140.62
2019-05-05T05:04:47.812Z,140.62
2019-05-05T05:05:47.754Z,140.62
2019-05-05T05:06:47.771Z,140.62
2019-05-05T05:07:47.754Z,140.62
2019-05-05T05:08:47.737Z,140.62
2019-05-05T05:09:47.810Z,146.25
2019-05-05T05:10:47.711Z,146.25
2019-05-05T05:11:47.872Z,146.25
2019-05-05T05:12:47.718Z,146.25
2019-05-05T05:13:47.713Z,151.88
2019-05-05T05:14:47.650Z,151.88
2019-05-05T05:15:47.668Z,151.88
2019-05-05T05:16:47.679Z,157.50
2019-05-05T05:17:47.647Z,157.50
2019-05-05T05:18:47.628Z,157.50
2019-05-05T05:19:47.701Z,163.12
2019-05-05T05:20:47.602Z,163.12
2019-05-05T05:21:58.452Z,163.12
2019-05-05T05:22:48.596Z,163.12
2019-05-05T05:23:47.602Z,168.75
2019-05-05T05:24:47.593Z,168.75
2019-05-05T05:25:47.543Z,168.75
2019-05-05T05:26:47.613Z,174.38
2019-05-05T05:27:47.550Z,174.38
2019-05-05T05:28:47.625Z,174.38
2019-05-05T05:29:47.552Z,180.00
2019-05-05T05:30:47.575Z,180.00
2019-05-05T05:31:47.513Z,180.00
2019-05-05T05:32:47.583Z,185.62
2019-05-05T05:33:47.504Z,185.62
2019-05-05T05:34:47.497Z,185.62
2019-05-05T05:35:47.463Z,191.25
2019-05-05T05:36:47.491Z,191.25
2019-05-05T05:37:47.623Z,191.25
2019-05-05T05:38:47.451Z,191.25
2019-05-05T05:39:47.451Z,196.88
2019-05-05T05:40:47.513Z,196.88
2019-05-05T05:41:47.446Z,196.88
2019-05-05T05:42:47.418Z,196.88
2019-05-05T05:43:47.506Z,202.50
2019-05-05T05:44:47.405Z,202.50
2019-05-05T05:45:47.608Z,202.50
2019-05-05T05:46:47.346Z,208.12
2019-05-05T05:47:47.379Z,208.12
2019-05-05T05:48:48.213Z,202.50
2019-05-05T05:49:47.339Z,208.12
2019-05-05T05:50:47.300Z,208.12
2019-05-05T05:51:47.345Z,208.12
2019-05-05T05:52:47.324Z,208.12
2019-05-05T05:53:47.288Z,208.12
2019-05-05T05:54:47.232Z,213.75
2019-05-05T05:55:47.245Z,213.75
2019-05-05T05:56:47.246Z,213.75
2019-05-05T05:57:47.212Z,219.38
2019-05-05T05:58:47.203Z,219.38
2019-05-05T05:59:47.218Z,219.38
2019-05-05T06:00:47.206Z,225.00
2019-05-05T06:01:47.232Z,225.00
2019-05-05T06:02:47.160Z,225.00
2019-05-05T06:03:47.164Z,225.00
2019-05-05T06:04:47.177Z,230.62
2019-05-05T06:05:47.161Z,241.88
2019-05-05T06:06:47.165Z,241.88
2019-05-05T06:07:47.120Z,275.62
2019-05-05T06:08:47.090Z,286.88
2019-05-05T06:09:47.123Z,275.62
2019-05-05T06:10:47.085Z,247.50
2019-05-05T06:11:47.084Z,241.88
2019-05-05T06:12:47.123Z,241.88
2019-05-05T06:13:47.617Z,241.88
2019-05-05T06:14:47.023Z,247.50
2019-05-05T06:15:47.079Z,247.50
2019-05-05T06:16:47.031Z,247.50
2019-05-05T06:17:47.015Z,247.50
2019-05-05T06:18:46.996Z,253.12
2019-05-05T06:19:46.989Z,253.12
2019-05-05T06:20:46.985Z,253.12
2019-05-05T06:21:46.973Z,253.12
2019-05-05T06:22:46.990Z,258.75
2019-05-05T06:23:46.959Z,258.75
2019-05-05T06:24:47.009Z,258.75
2019-05-05T06:25:46.943Z,258.75
2019-05-05T06:26:46.908Z,258.75
2019-05-05T06:27:46.907Z,264.38
2019-05-05T06:28:46.945Z,264.38
2019-05-05T06:29:46.893Z,264.38
2019-05-05T06:30:46.935Z,264.38
2019-05-05T06:31:46.906Z,264.38
2019-05-05T06:32:46.851Z,264.38
2019-05-05T06:33:46.876Z,264.38
2019-05-05T06:34:46.861Z,264.38
2019-05-05T06:35:46.883Z,264.38
2019-05-05T06:36:46.803Z,270.00
2019-05-05T06:37:46.798Z,270.00
2019-05-05T06:38:46.880Z,270.00
2019-05-05T06:39:46.800Z,270.00
2019-05-05T06:40:46.768Z,275.62
2019-05-05T06:41:46.757Z,275.62
2019-05-05T06:42:46.756Z,275.62
2019-05-05T06:43:46.800Z,275.62
2019-05-05T06:44:46.801Z,275.62
2019-05-05T06:45:46.735Z,281.25
2019-05-05T06:46:46.774Z,281.25
2019-05-05T06:47:46.712Z,281.25
2019-05-05T06:48:46.697Z,281.25
2019-05-05T06:49:46.747Z,281.25
2019-05-05T06:50:46.712Z,286.88
2019-05-05T06:51:46.717Z,292.50
2019-05-05T06:52:47.239Z,286.88
2019-05-05T06:53:46.651Z,286.88
2019-05-05T06:54:46.669Z,286.88
2019-05-05T06:55:46.655Z,286.88
2019-05-05T06:56:46.670Z,292.50
2019-05-05T06:57:46.689Z,292.50
2019-05-05T06:58:46.631Z,292.50
2019-05-05T06:59:46.620Z,292.50
2019-05-05T07:00:46.571Z,292.50
2019-05-05T07:01:46.622Z,292.50
2019-05-05T07:02:46.629Z,298.12
2019-05-05T07:03:46.853Z,298.12
2019-05-05T07:04:46.540Z,298.12
2019-05-05T07:05:47.225Z,298.12
2019-05-05T07:06:54.188Z,298.12
2019-05-05T07:07:47.545Z,303.75
2019-05-05T07:08:46.736Z,303.75
2019-05-05T07:09:46.475Z,303.75
2019-05-05T07:10:46.476Z,303.75
2019-05-05T07:11:46.476Z,303.75
2019-05-05T07:12:46.425Z,309.38
2019-05-05T07:13:46.422Z,309.38
2019-05-05T07:14:46.416Z,309.38
2019-05-05T07:15:46.466Z,309.38
2019-05-05T07:16:46.379Z,309.38
2019-05-05T07:17:46.480Z,320.62
2019-05-05T07:18:46.388Z,315.00
2019-05-05T07:19:46.455Z,315.00
2019-05-05T07:20:46.357Z,315.00
2019-05-05T07:21:46.341Z,315.00
2019-05-05T07:22:58.832Z,315.00
2019-05-05T07:23:47.345Z,315.00
2019-05-05T07:24:46.299Z,320.62
2019-05-05T07:25:46.371Z,320.62
2019-05-05T07:26:46.274Z,320.62
2019-05-05T07:27:46.279Z,320.62
2019-05-05T07:28:46.280Z,320.62
2019-05-05T07:29:46.278Z,320.62
2019-05-05T07:30:46.236Z,326.25
2019-05-05T07:31:46.260Z,326.25
2019-05-05T07:32:46.228Z,326.25
2019-05-05T07:33:46.237Z,326.25
2019-05-05T07:34:46.195Z,326.25
2019-05-05T07:35:56.137Z,326.25
2019-05-05T07:36:47.178Z,326.25
2019-05-05T07:37:46.206Z,326.25
2019-05-05T07:38:46.153Z,326.25
2019-05-05T07:39:46.165Z,326.25
2019-05-05T07:40:46.133Z,326.25
2019-05-05T07:41:46.139Z,326.25
2019-05-05T07:42:46.163Z,331.88
2019-05-05T07:43:46.102Z,331.88
2019-05-05T07:44:46.111Z,331.88
2019-05-05T07:45:46.120Z,331.88
2019-05-05T07:46:46.082Z,331.88
2019-05-05T07:47:47.537Z,337.50
2019-05-05T07:48:46.115Z,337.50
2019-05-05T07:49:46.034Z,343.12
2019-05-05T07:50:58.120Z,337.50
2019-05-05T07:51:47.074Z,343.12
2019-05-05T07:52:46.023Z,343.12
2019-05-05T07:53:45.988Z,348.75
2019-05-05T07:54:46.022Z,146.25
2019-05-05T07:55:45.970Z,354.38
2019-05-05T07:56:45.979Z,348.75
2019-05-05T07:57:45.950Z,360.00
2019-05-05T07:58:46.781Z,354.38
2019-05-05T07:59:45.951Z,360.00
2019-05-05T08:00:45.916Z,354.38
2019-05-05T08:01:46.689Z,360.00
2019-05-05T08:02:45.913Z,365.62
2019-05-05T08:03:45.913Z,376.88
2019-05-05T08:04:45.927Z,388.12
2019-05-05T08:05:45.907Z,388.12
2019-05-05T08:06:45.864Z,371.25
2019-05-05T08:07:45.878Z,371.25
2019-05-05T08:08:45.942Z,388.12
2019-05-05T08:09:45.842Z,399.38
2019-05-05T08:10:45.842Z,393.75
2019-05-05T08:11:45.846Z,405.00
2019-05-05T08:12:45.801Z,438.75
2019-05-05T08:13:45.789Z,444.38
2019-05-05T08:14:45.839Z,450.00
2019-05-05T08:15:56.935Z,258.75
2019-05-05T08:16:46.755Z,253.12
2019-05-05T08:17:45.735Z,450.00
2019-05-05T08:18:45.742Z,455.62
2019-05-05T08:19:45.727Z,281.25
2019-05-05T08:20:45.882Z,472.50
2019-05-05T08:21:45.706Z,275.62
2019-05-05T08:22:45.747Z,258.75
2019-05-05T08:23:45.673Z,264.38
2019-05-05T08:24:45.710Z,292.50
2019-05-05T08:25:45.684Z,556.88
2019-05-05T08:26:45.728Z,348.75
2019-05-05T08:27:45.652Z,450.00
2019-05-05T08:28:45.637Z,421.88
2019-05-05T08:29:45.608Z,444.38
2019-05-05T08:30:45.701Z,410.62
2019-05-05T08:31:45.614Z,399.38
2019-05-05T08:32:45.604Z,393.75
2019-05-05T08:33:45.725Z,399.38
2019-05-05T08:34:57.278Z,213.75
2019-05-05T08:35:46.570Z,213.75
2019-05-05T08:36:45.590Z,247.50
2019-05-05T08:37:45.546Z,253.12
2019-05-05T08:38:45.598Z,315.00
2019-05-05T08:39:45.510Z,517.50
2019-05-05T08:40:45.512Z,551.25
2019-05-05T08:41:47.469Z,613.12
2019-05-05T08:42:45.497Z,669.38
2019-05-05T08:43:45.512Z,641.25
2019-05-05T08:44:45.558Z,641.25
2019-05-05T08:45:45.446Z,669.38
2019-05-05T08:46:45.507Z,691.88
2019-05-05T08:47:46.326Z,686.25
2019-05-05T08:48:45.403Z,438.75
2019-05-05T08:49:45.393Z,466.88
2019-05-05T08:50:45.415Z,393.75
2019-05-05T08:51:45.376Z,433.12
2019-05-05T08:52:45.531Z,450.00
2019-05-05T08:53:48.134Z,450.00
2019-05-05T08:54:45.356Z,421.88
2019-05-05T08:55:45.346Z,568.12
2019-05-05T08:56:45.340Z,523.12
2019-05-05T08:57:45.321Z,326.25
2019-05-05T08:58:45.365Z,354.38
2019-05-05T08:59:45.387Z,517.50
2019-05-05T09:00:45.274Z,405.00
2019-05-05T09:01:45.368Z,399.38
2019-05-05T09:02:45.284Z,416.25
2019-05-05T09:03:45.268Z,646.88
2019-05-05T09:04:45.252Z,635.62
2019-05-05T09:05:45.229Z,433.12
2019-05-05T09:06:45.287Z,433.12
2019-05-05T09:07:45.247Z,399.38
2019-05-05T09:08:45.238Z,573.75
2019-05-05T09:09:45.208Z,545.62
2019-05-05T09:10:45.180Z,534.38
2019-05-05T09:11:45.199Z,500.62
2019-05-05T09:12:45.165Z,376.88
2019-05-05T09:13:45.228Z,208.12
2019-05-05T09:14:45.153Z,180.00
2019-05-05T09:15:45.160Z,174.38
2019-05-05T09:16:45.120Z,168.75
2019-05-05T09:17:45.120Z,174.38
2019-05-05T09:18:45.107Z,180.00
2019-05-05T09:19:45.128Z,180.00
2019-05-05T09:20:45.142Z,185.62
2019-05-05T09:21:45.075Z,202.50
2019-05-05T09:22:46.043Z,225.00
2019-05-05T09:23:58.633Z,281.25
2019-05-05T09:24:46.061Z,523.12
2019-05-05T09:25:45.017Z,523.12
2019-05-05T09:26:45.012Z,528.75
2019-05-05T09:27:44.990Z,534.38
2019-05-05T09:28:45.025Z,556.88
2019-05-05T09:29:45.036Z,579.38
2019-05-05T09:30:44.992Z,601.88
2019-05-05T09:31:45.169Z,416.25
2019-05-05T09:32:44.947Z,556.88
2019-05-05T09:33:44.927Z,607.50
2019-05-05T09:34:44.940Z,596.25
2019-05-05T09:35:44.944Z,601.88
2019-05-05T09:36:44.927Z,556.88
2019-05-05T09:37:44.900Z,528.75
2019-05-05T09:38:45.082Z,511.88
2019-05-05T09:39:44.915Z,506.25
2019-05-05T09:40:44.872Z,331.88
2019-05-05T09:41:44.866Z,506.25
2019-05-05T09:42:44.894Z,528.75
2019-05-05T09:43:44.873Z,641.25
2019-05-05T09:44:44.815Z,562.50
2019-05-05T09:45:44.832Z,573.75
2019-05-05T09:46:44.818Z,590.62
2019-05-05T09:47:45.048Z,697.50
2019-05-05T09:48:44.798Z,787.50
2019-05-05T09:49:44.808Z,748.12
2019-05-05T09:50:44.779Z,669.38
2019-05-05T09:51:44.795Z,568.12
2019-05-05T09:52:44.786Z,545.62
2019-05-05T09:53:44.973Z,433.12
2019-05-05T09:54:44.737Z,433.12
2019-05-05T09:55:44.716Z,466.88
2019-05-05T09:56:44.699Z,500.62
2019-05-05T09:57:44.726Z,523.12
2019-05-05T09:58:44.757Z,540.00
2019-05-05T09:59:44.728Z,551.25
2019-05-05T10:00:44.744Z,556.88
2019-05-05T10:01:44.714Z,556.88
2019-05-05T10:02:44.690Z,540.00
2019-05-05T10:03:44.786Z,523.12
2019-05-05T10:04:44.644Z,489.38
2019-05-05T10:05:44.644Z,461.25
2019-05-05T10:06:47.741Z,438.75
2019-05-05T10:07:54.464Z,405.00
2019-05-05T10:08:53.929Z,382.50
2019-05-05T10:09:44.611Z,371.25
2019-05-05T10:10:44.562Z,365.62
2019-05-05T10:12:55.725Z,388.12
2019-05-05T10:13:55.725Z,427.50
2019-05-05T10:15:07.464Z,472.50
2019-05-05T10:16:05.084Z,517.50
2019-05-05T10:16:55.704Z,607.50
2019-05-05T10:17:55.653Z,568.12
2019-05-05T10:18:55.663Z,528.75
2019-05-05T10:19:55.640Z,568.12
2019-05-05T10:20:55.670Z,596.25
2019-05-05T10:21:55.657Z,579.38
2019-05-05T10:22:55.600Z,500.62
2019-05-05T10:23:56.580Z,416.25
2019-05-05T10:24:57.569Z,416.25
2019-05-05T10:28:54.300Z,399.38
2019-05-05T10:29:45.813Z,388.12
2019-05-05T10:30:45.781Z,376.88
2019-05-05T10:31:45.683Z,376.88
2019-05-05T10:32:46.604Z,382.50
2019-05-05T10:33:45.600Z,382.50
2019-05-05T10:34:45.604Z,393.75
2019-05-05T10:35:45.659Z,405.00
2019-05-05T10:36:45.620Z,421.88
2019-05-05T10:37:45.655Z,433.12
2019-05-05T10:38:45.628Z,450.00
2019-05-05T10:39:45.679Z,472.50
2019-05-05T10:40:48.249Z,500.62
2019-05-05T10:41:46.417Z,523.12
2019-05-05T10:42:45.572Z,534.38
2019-05-05T10:43:45.640Z,545.62
2019-05-05T10:44:45.520Z,585.00
2019-05-05T10:45:45.505Z,624.38
2019-05-05T10:46:46.256Z,663.75
2019-05-05T10:47:46.251Z,703.12
2019-05-05T10:48:49.345Z,736.88
2019-05-05T10:49:45.515Z,753.75
2019-05-05T10:50:45.530Z,759.38
2019-05-05T10:51:45.619Z,765.00
2019-05-05T10:52:45.467Z,765.00
2019-05-05T10:53:45.478Z,810.00
2019-05-05T10:54:45.877Z,781.88
2019-05-05T10:55:46.255Z,770.62
2019-05-05T10:56:46.253Z,675.00
2019-05-05T10:57:45.395Z,658.12
2019-05-05T10:58:46.267Z,641.25
2019-05-05T10:59:45.473Z,635.62
2019-05-05T11:00:45.316Z,641.25
2019-05-05T11:01:46.756Z,663.75
2019-05-05T11:02:45.392Z,691.88
2019-05-05T11:03:45.325Z,714.38
2019-05-05T11:04:45.347Z,720.00
2019-05-05T11:05:49.797Z,736.88
2019-05-05T11:06:54.621Z,742.50
2019-05-05T11:07:46.255Z,736.88
2019-05-05T11:08:45.755Z,731.25
2019-05-05T11:09:45.344Z,781.88
2019-05-05T11:10:47.768Z,714.38
2019-05-05T11:11:46.764Z,624.38
2019-05-05T11:14:49.823Z,455.62
2019-05-05T11:15:40.424Z,444.38
2019-05-05T11:16:43.746Z,450.00
2019-05-05T11:17:43.932Z,466.88
2019-05-05T11:18:39.428Z,500.62
2019-05-05T11:19:39.257Z,545.62
2019-05-05T11:20:39.265Z,590.62
2019-05-05T11:21:39.302Z,635.62
2019-05-05T11:22:39.343Z,669.38
2019-05-05T15:08:58.690Z,798.75
2019-05-05T15:09:58.093Z,776.25
2019-05-05T15:10:57.235Z,798.75
2019-05-05T15:11:57.185Z,1029.38
2019-05-05T15:12:57.118Z,815.62
2019-05-05T15:14:18.987Z,573.75
2019-05-05T15:14:57.069Z,506.25
2019-05-05T15:16:00.007Z,461.25
2019-05-05T15:16:57.910Z,438.75
2019-05-05T15:17:57.042Z,405.00
2019-05-05T15:18:57.124Z,360.00
2019-05-05T15:19:57.052Z,315.00
2019-05-05T15:20:57.072Z,275.62
2019-05-05T15:21:57.100Z,258.75
2019-05-05T15:22:57.005Z,247.50
2019-05-05T15:23:56.981Z,247.50
2019-05-05T15:24:56.989Z,253.12
2019-05-05T15:25:56.964Z,253.12
2019-05-05T15:26:57.085Z,253.12
2019-05-05T15:27:56.991Z,241.88
2019-05-05T15:29:01.468Z,247.50
2019-05-05T15:29:56.938Z,258.75
2019-05-05T15:30:56.899Z,275.62
2019-05-05T15:31:56.894Z,286.88
2019-05-05T15:32:56.932Z,303.75
2019-05-05T15:33:56.927Z,320.62
2019-05-05T15:34:56.923Z,337.50
2019-05-05T15:35:56.842Z,348.75
2019-05-05T15:36:56.866Z,365.62
2019-05-05T15:37:56.861Z,376.88
2019-05-05T15:38:56.820Z,388.12
2019-05-05T15:39:56.865Z,399.38
2019-05-05T15:40:57.523Z,416.25
2019-05-05T15:41:56.783Z,472.50
2019-05-05T15:42:56.781Z,585.00
2019-05-05T15:43:56.769Z,551.25
2019-05-05T15:44:56.782Z,585.00
2019-05-05T15:45:56.762Z,540.00
2019-05-05T15:46:58.045Z,748.12
2019-05-05T15:47:56.772Z,646.88
2019-05-05T15:48:57.410Z,652.50
2019-05-05T15:49:56.790Z,545.62
2019-05-05T15:50:56.715Z,568.12
2019-05-05T15:51:57.474Z,562.50
2019-05-05T15:52:56.679Z,545.62
2019-05-05T15:53:56.729Z,585.00
2019-05-05T15:54:56.682Z,568.12
2019-05-05T15:55:56.646Z,579.38
2019-05-05T15:57:05.555Z,596.25
2019-05-05T15:57:57.598Z,613.12
2019-05-05T15:58:56.616Z,635.62
2019-05-05T15:59:56.658Z,641.25
2019-05-05T16:00:56.641Z,630.00
2019-05-05T16:01:56.599Z,613.12
2019-05-05T16:02:56.565Z,585.00
2019-05-05T16:03:56.584Z,607.50
2019-05-05T16:04:58.947Z,568.12
2019-05-05T16:05:56.527Z,568.12
2019-05-05T16:06:58.779Z,585.00
2019-05-05T16:07:56.553Z,596.25
2019-05-05T16:08:56.722Z,607.50
2019-05-05T16:09:56.526Z,618.75
2019-05-05T16:10:56.487Z,573.75
2019-05-05T16:11:56.496Z,579.38
2019-05-05T16:12:56.451Z,556.88
2019-05-05T16:13:56.444Z,545.62
2019-05-05T16:14:56.448Z,545.62
2019-05-05T16:15:56.496Z,534.38
2019-05-05T16:16:56.431Z,517.50
2019-05-05T16:17:56.409Z,495.00
2019-05-05T16:19:05.212Z,472.50
2019-05-05T16:19:57.420Z,461.25
2019-05-05T16:20:56.698Z,455.62
2019-05-05T16:21:57.115Z,450.00
2019-05-05T16:22:56.386Z,455.62
2019-05-05T16:23:56.317Z,455.62
2019-05-05T16:24:57.827Z,438.75
2019-05-05T16:25:56.324Z,421.88
2019-05-05T16:26:56.925Z,393.75
2019-05-05T16:27:56.347Z,371.25
2019-05-05T16:28:56.304Z,354.38
2019-05-05T16:29:56.504Z,337.50
2019-05-05T16:30:56.555Z,326.25
2019-05-05T16:31:56.303Z,326.25
2019-05-05T16:32:56.285Z,315.00
2019-05-05T16:33:56.247Z,303.75
2019-05-05T16:34:56.242Z,298.12
2019-05-05T16:35:57.423Z,292.50